Time;durP1;ratioP1;P1;durP2;ratioP2;P2;SDS_P1;SDS_P2;PMS_P1;PMS_P2;Temp;Humidity;BMP_temperature;BMP_pressure;BME280_temperature;BME280_humidity;BME280_pressure;Samples;Min_cycle;Max_cycle;Signal;HPM_P1;HPM_P2
2021/06/26 00:00:52;;;;;;;24.77;22.15;;;16.40;99.90;;;;;;5114805;28;20032;-68
2021/06/26 00:03:25;;;;;;;23.70;20.90;;;16.40;99.90;;;;;;5095641;28;20542;-69
2021/06/26 00:05:51;;;;;;;22.70;20.25;;;16.30;99.90;;;;;;5114641;28;20028;-71
2021/06/26 00:08:18;;;;;;;22.55;20.15;;;16.20;99.90;;;;;;5096725;28;20016;-69
2021/06/26 00:10:45;;;;;;;22.70;20.40;;;16.10;99.90;;;;;;5113931;28;20024;-69
2021/06/26 00:13:11;;;;;;;23.73;21.27;;;16.10;99.90;;;;;;5114852;28;20476;-69
2021/06/26 00:15:37;;;;;;;24.00;21.60;;;16.00;99.90;;;;;;5114477;28;20126;-69
2021/06/26 00:18:04;;;;;;;23.50;21.20;;;16.00;99.90;;;;;;5113934;28;20107;-69
2021/06/26 00:20:30;;;;;;;23.02;20.63;;;15.90;99.90;;;;;;5114483;28;20059;-69
2021/06/26 00:22:56;;;;;;;21.90;19.70;;;15.90;99.90;;;;;;5114695;28;20430;-69
2021/06/26 00:25:23;;;;;;;24.25;21.85;;;15.80;99.90;;;;;;5114200;28;20032;-69
2021/06/26 00:27:49;;;;;;;23.73;21.23;;;15.70;99.90;;;;;;5114321;28;20501;-69
2021/06/26 00:30:15;;;;;;;23.55;19.38;;;15.70;99.90;;;;;;5114560;28;20487;-69
2021/06/26 00:32:42;;;;;;;24.42;21.30;;;15.60;99.90;;;;;;5113460;28;20055;-69
2021/06/26 00:35:09;;;;;;;21.80;19.52;;;15.50;99.90;;;;;;5114472;28;20031;-69
2021/06/26 00:37:34;;;;;;;22.73;20.42;;;15.50;99.90;;;;;;5114318;28;20490;-69
2021/06/26 00:40:00;;;;;;;22.63;19.98;;;15.40;99.90;;;;;;5113635;28;20062;-68
2021/06/26 00:42:33;;;;;;;22.10;19.80;;;15.30;99.90;;;;;;5114364;28;20073;-68
2021/06/26 00:44:59;;;;;;;22.05;19.85;;;15.20;99.90;;;;;;5114239;28;20024;-69
2021/06/26 00:47:26;;;;;;;22.20;19.83;;;15.20;99.90;;;;;;5095421;28;20027;-69
2021/06/26 00:49:52;;;;;;;23.75;21.35;;;15.10;99.90;;;;;;5095668;28;20031;-72
2021/06/26 00:52:17;;;;;;;21.83;19.60;;;15.10;99.90;;;;;;5095166;28;20397;-70
2021/06/26 00:54:43;;;;;;;23.02;20.67;;;15.00;99.90;;;;;;5113662;28;20038;-69
2021/06/26 00:57:09;;;;;;;22.95;20.65;;;14.90;99.90;;;;;;5114078;28;20023;-69
2021/06/26 00:59:35;;;;;;;24.05;21.25;;;14.90;99.90;;;;;;5094782;28;20827;-69
2021/06/26 01:02:03;;;;;;;23.15;20.73;;;14.90;99.90;;;;;;5113986;28;20023;-69
2021/06/26 01:04:29;;;;;;;22.05;19.70;;;14.90;99.90;;;;;;5095504;28;20027;-69
2021/06/26 01:06:55;;;;;;;22.45;20.17;;;14.80;99.90;;;;;;5113290;28;20032;-69
2021/06/26 01:09:21;;;;;;;24.70;21.98;;;14.80;99.90;;;;;;5113925;28;20023;-70
2021/06/26 01:11:47;;;;;;;22.35;20.10;;;14.70;99.90;;;;;;5113396;28;20382;-69
2021/06/26 01:14:12;;;;;;;23.00;20.50;;;14.70;99.90;;;;;;5094676;28;20030;-70
2021/06/26 01:16:38;;;;;;;23.48;21.02;;;14.70;99.90;;;;;;5094542;28;20058;-68
2021/06/26 01:19:03;;;;;;;24.08;21.38;;;14.60;99.90;;;;;;5095247;28;20047;-69
2021/06/26 01:21:29;;;;;;;24.23;21.67;;;14.60;99.90;;;;;;5094634;28;20483;-69
2021/06/26 01:23:55;;;;;;;24.92;21.77;;;14.60;99.90;;;;;;5113406;28;20479;-69
2021/06/26 01:26:24;;;;;;;24.20;19.98;;;14.60;99.90;;;;;;5113563;28;20031;-69
2021/06/26 01:28:50;;;;;;;23.02;20.30;;;14.50;99.90;;;;;;5112468;28;20123;-69
2021/06/26 01:31:16;;;;;;;22.83;20.42;;;14.50;99.90;;;;;;5113411;28;20511;-69
2021/06/26 01:33:41;;;;;;;23.88;21.27;;;14.50;99.90;;;;;;5112940;28;20470;-69
2021/06/26 01:36:07;;;;;;;24.35;21.48;;;14.50;99.90;;;;;;5094388;28;20074;-70
2021/06/26 01:38:32;;;;;;;22.55;20.33;;;14.50;99.90;;;;;;5113115;28;20028;-69
2021/06/26 01:40:58;;;;;;;24.00;21.23;;;14.40;99.90;;;;;;5113409;28;20145;-69
2021/06/26 01:43:23;;;;;;;23.88;21.33;;;14.40;99.90;;;;;;5094371;28;20030;-69
2021/06/26 01:45:49;;;;;;;24.20;21.13;;;14.40;99.90;;;;;;5112806;28;20127;-69
2021/06/26 01:48:14;;;;;;;24.63;21.98;;;14.40;99.90;;;;;;5113059;28;20031;-69
2021/06/26 01:50:40;;;;;;;23.13;20.73;;;14.40;99.90;;;;;;5111984;28;20023;-69
2021/06/26 01:53:06;;;;;;;26.40;20.98;;;14.30;99.90;;;;;;5094739;28;20027;-69
2021/06/26 01:55:31;;;;;;;25.27;22.23;;;14.30;99.90;;;;;;5093985;28;20467;-69
2021/06/26 01:57:57;;;;;;;24.13;21.63;;;14.30;99.90;;;;;;5112621;28;20102;-69
2021/06/26 02:00:24;;;;;;;22.30;20.00;;;14.30;99.90;;;;;;5113065;28;20471;-69
2021/06/26 02:02:51;;;;;;;25.65;22.20;;;14.30;99.90;;;;;;5093646;28;20034;-69
2021/06/26 02:05:18;;;;;;;23.15;20.80;;;14.20;99.90;;;;;;5112877;28;20030;-68
2021/06/26 02:07:45;;;;;;;23.58;21.08;;;14.30;99.90;;;;;;5112516;28;20027;-69
2021/06/26 02:10:11;;;;;;;24.00;21.52;;;14.30;99.90;;;;;;5112146;28;20027;-68
2021/06/26 02:12:37;;;;;;;24.50;21.85;;;14.30;99.90;;;;;;5112515;28;20072;-69
2021/06/26 02:15:04;;;;;;;24.45;21.77;;;14.20;99.90;;;;;;5112536;28;20031;-69
2021/06/26 02:17:30;;;;;;;24.92;21.98;;;14.20;99.90;;;;;;5093613;28;20123;-71
2021/06/26 02:19:55;;;;;;;26.42;22.60;;;14.20;99.90;;;;;;5112488;28;20539;-69
2021/06/26 02:22:21;;;;;;;26.67;22.17;;;14.20;99.90;;;;;;5112725;28;20024;-69
2021/06/26 02:24:47;;;;;;;25.00;22.38;;;14.20;99.90;;;;;;5093339;28;20020;-68
2021/06/26 02:27:12;;;;;;;23.73;21.30;;;14.20;99.90;;;;;;5094127;28;20372;-69
2021/06/26 02:29:38;;;;;;;26.83;22.55;;;14.20;99.90;;;;;;5093979;28;20416;-69
2021/06/26 02:32:05;;;;;;;24.73;21.92;;;14.10;99.90;;;;;;5111722;28;20048;-69
2021/06/26 02:34:30;;;;;;;25.23;22.52;;;14.10;99.90;;;;;;5112096;28;20137;-69
2021/06/26 02:36:56;;;;;;;26.08;23.48;;;14.10;99.90;;;;;;5112417;28;20114;-69
2021/06/26 02:39:22;;;;;;;24.23;21.63;;;14.00;99.90;;;;;;5111917;28;20034;-69
2021/06/26 02:41:47;;;;;;;25.50;22.75;;;14.10;99.90;;;;;;5112191;28;20020;-69
2021/06/26 02:44:13;;;;;;;25.20;22.50;;;14.10;99.90;;;;;;5094196;28;20081;-69
2021/06/26 02:46:38;;;;;;;24.48;21.95;;;14.10;99.90;;;;;;5111514;28;20024;-68
2021/06/26 02:49:04;;;;;;;24.45;21.67;;;14.10;99.90;;;;;;5112393;28;20027;-68
2021/06/26 02:51:30;;;;;;;26.23;23.23;;;14.10;99.90;;;;;;5093871;28;20069;-68
2021/06/26 02:53:56;;;;;;;24.42;21.83;;;14.10;99.90;;;;;;5111476;28;20056;-68
2021/06/26 02:56:22;;;;;;;25.17;22.48;;;14.10;99.90;;;;;;5112044;28;20475;-68
2021/06/26 02:58:47;;;;;;;25.58;22.73;;;14.10;99.90;;;;;;5111992;28;20030;-69
2021/06/26 03:01:13;;;;;;;25.70;22.88;;;14.00;99.90;;;;;;5093720;28;20016;-69
2021/06/26 03:03:39;;;;;;;27.00;24.10;;;14.10;99.90;;;;;;5093683;28;20051;-69
2021/06/26 03:06:04;;;;;;;24.70;22.10;;;14.00;99.90;;;;;;5093154;28;20376;-69
2021/06/26 03:08:30;;;;;;;25.52;22.85;;;14.00;99.90;;;;;;5111919;28;20489;-69
2021/06/26 03:10:56;;;;;;;25.67;22.80;;;14.00;99.90;;;;;;5111860;28;20379;-69
2021/06/26 03:13:21;;;;;;;25.08;22.48;;;14.10;99.90;;;;;;5111597;28;20099;-69
2021/06/26 03:15:47;;;;;;;29.80;23.35;;;14.30;99.90;;;;;;5111352;28;20196;-69
2021/06/26 03:18:13;;;;;;;26.17;23.40;;;14.40;99.90;;;;;;5093860;28;20023;-70
2021/06/26 03:20:38;;;;;;;26.27;23.48;;;14.50;99.90;;;;;;5111164;28;20058;-69
2021/06/26 03:23:05;;;;;;;24.77;21.98;;;14.60;99.90;;;;;;5076534;28;20094;-69
2021/06/26 03:25:30;;;;;;;23.52;21.13;;;14.70;99.90;;;;;;5057398;28;20395;-69
2021/06/26 03:27:56;;;;;;;24.98;22.38;;;14.80;99.90;;;;;;5073186;28;20021;-70
2021/06/26 03:30:21;;;;;;;23.63;21.15;;;14.90;99.90;;;;;;5091695;28;20423;-70
2021/06/26 03:32:47;;;;;;;25.23;22.52;;;15.00;99.90;;;;;;5091216;28;20089;-70
2021/06/26 03:35:13;;;;;;;27.15;21.63;;;15.00;99.90;;;;;;5072619;28;20082;-69
2021/06/26 03:37:39;;;;;;;25.92;22.75;;;15.10;99.90;;;;;;5091292;28;20020;-69
2021/06/26 03:40:06;;;;;;;24.85;22.17;;;15.20;99.90;;;;;;5074113;28;20028;-70
2021/06/26 03:42:31;;;;;;;25.45;20.83;;;15.20;99.90;;;;;;5074143;28;20051;-70
2021/06/26 03:44:57;;;;;;;29.02;24.95;;;15.30;99.90;;;;;;5057616;28;20477;-69
2021/06/26 03:47:22;;;;;;;26.90;22.98;;;15.30;99.90;;;;;;5095075;28;20020;-69
2021/06/26 03:49:48;;;;;;;26.90;22.85;;;15.40;99.90;;;;;;5094102;28;20066;-69
2021/06/26 03:52:14;;;;;;;27.27;24.17;;;15.50;99.90;;;;;;5060894;28;20024;-69
2021/06/26 03:54:39;;;;;;;24.98;21.70;;;15.50;99.90;;;;;;5074228;28;20060;-77
2021/06/26 03:57:05;;;;;;;26.42;23.55;;;15.60;99.90;;;;;;5074099;28;20483;-69
2021/06/26 03:59:31;;;;;;;25.95;22.90;;;15.60;99.90;;;;;;5076697;28;20020;-69
2021/06/26 04:01:57;;;;;;;25.27;22.63;;;15.70;99.90;;;;;;5076075;28;20410;-74
2021/06/26 04:04:23;;;;;;;26.25;23.25;;;15.80;99.90;;;;;;5105060;28;20068;-69
2021/06/26 04:06:48;;;;;;;27.73;23.15;;;15.80;99.90;;;;;;5086240;28;20437;-69
2021/06/26 04:09:14;;;;;;;27.27;23.67;;;15.90;99.90;;;;;;5076597;28;20016;-69
2021/06/26 04:11:40;;;;;;;26.95;23.90;;;15.90;99.90;;;;;;5114927;28;20028;-69
2021/06/26 04:14:05;;;;;;;26.90;24.00;;;16.00;99.90;;;;;;5097392;28;20468;-68
2021/06/26 04:16:31;;;;;;;26.33;23.55;;;16.00;99.90;;;;;;5071736;28;20685;-69
2021/06/26 04:18:57;;;;;;;26.50;23.52;;;16.10;99.90;;;;;;5078677;28;20149;-68
2021/06/26 04:21:23;;;;;;;26.35;23.55;;;16.30;99.90;;;;;;5094259;28;20020;-68
2021/06/26 04:23:48;;;;;;;26.35;23.25;;;16.30;99.90;;;;;;5086771;28;20531;-69
2021/06/26 04:26:14;;;;;;;28.40;24.60;;;16.40;99.90;;;;;;5100584;28;20028;-69
2021/06/26 04:28:39;;;;;;;28.77;23.20;;;16.40;99.90;;;;;;5112712;28;20077;-69
2021/06/26 04:31:05;;;;;;;26.80;22.75;;;16.50;99.90;;;;;;5095481;28;20022;-69
2021/06/26 04:33:30;;;;;;;29.88;24.40;;;16.50;99.90;;;;;;5114330;28;20100;-69
2021/06/26 04:35:56;;;;;;;31.30;25.05;;;16.50;99.90;;;;;;5095997;28;20123;-69
2021/06/26 04:38:22;;;;;;;29.83;24.52;;;16.50;99.90;;;;;;5113914;28;20027;-69
2021/06/26 04:40:52;;;;;;;26.15;22.63;;;16.60;99.90;;;;;;5114048;28;20436;-69
2021/06/26 04:43:21;;;;;;;27.35;23.15;;;16.60;99.90;;;;;;5096113;28;20019;-70
2021/06/26 04:45:48;;;;;;;26.80;23.83;;;16.60;99.90;;;;;;5113261;28;20379;-69
2021/06/26 04:48:18;;;;;;;25.10;22.15;;;16.70;99.90;;;;;;5096167;28;20016;-69
2021/06/26 04:50:43;;;;;;;24.25;21.65;;;16.70;99.90;;;;;;5095493;28;20023;-69
2021/06/26 04:53:09;;;;;;;25.17;20.95;;;16.80;99.90;;;;;;5113305;28;20018;-70
2021/06/26 04:55:34;;;;;;;23.10;20.70;;;16.90;99.90;;;;;;5113829;28;20027;-71
2021/06/26 04:58:00;;;;;;;24.15;21.50;;;16.90;99.90;;;;;;5113875;28;20073;-69
2021/06/26 05:00:26;;;;;;;22.88;20.67;;;17.00;99.90;;;;;;5113469;28;20016;-69
2021/06/26 05:02:51;;;;;;;22.42;20.05;;;17.10;99.90;;;;;;5095334;28;20379;-69
2021/06/26 05:05:17;;;;;;;22.58;20.23;;;17.20;99.90;;;;;;5095703;28;20015;-69
2021/06/26 05:07:42;;;;;;;22.73;20.35;;;17.30;99.90;;;;;;5094539;28;20106;-69
2021/06/26 05:10:08;;;;;;;23.48;21.02;;;17.30;99.90;;;;;;5113728;28;20095;-69
2021/06/26 05:12:34;;;;;;;22.83;20.50;;;17.40;99.90;;;;;;5094628;28;20053;-69
2021/06/26 05:14:59;;;;;;;22.58;20.20;;;17.50;99.90;;;;;;5113247;28;20044;-69
2021/06/26 05:17:25;;;;;;;23.58;21.27;;;17.50;99.90;;;;;;5113850;28;20053;-69
2021/06/26 05:19:50;;;;;;;24.05;21.55;;;17.60;99.90;;;;;;5094478;28;20484;-70
2021/06/26 05:22:16;;;;;;;24.80;22.23;;;17.60;99.90;;;;;;5113521;28;20023;-71
2021/06/26 05:24:42;;;;;;;23.45;20.95;;;17.60;99.90;;;;;;5113078;28;20030;-70
2021/06/26 05:27:08;;;;;;;25.35;21.65;;;17.70;99.90;;;;;;5094629;28;20039;-70
2021/06/26 05:29:35;;;;;;;22.92;20.30;;;17.80;99.90;;;;;;5112987;28;20081;-70
2021/06/26 05:32:02;;;;;;;23.60;21.10;;;17.80;99.90;;;;;;5113454;28;20023;-70
2021/06/26 05:34:28;;;;;;;22.65;20.25;;;17.90;99.90;;;;;;5094454;28;20046;-69
2021/06/26 05:36:53;;;;;;;23.45;21.08;;;18.00;99.90;;;;;;5113195;28;20467;-69
2021/06/26 05:39:19;;;;;;;22.85;20.50;;;18.10;99.90;;;;;;5113275;28;20016;-69
2021/06/26 05:41:44;;;;;;;25.58;22.13;;;18.20;99.90;;;;;;5094098;28;20088;-69
2021/06/26 05:44:10;;;;;;;25.77;20.83;;;18.30;99.90;;;;;;5094911;28;20490;-70
2021/06/26 05:46:35;;;;;;;23.20;20.80;;;18.40;99.90;;;;;;5097639;28;20435;-69
2021/06/26 05:49:02;;;;;;;24.13;21.60;;;18.40;99.90;;;;;;5060009;28;20017;-75
2021/06/26 05:51:27;;;;;;;23.33;20.85;;;18.60;99.90;;;;;;5072747;28;20449;-71
2021/06/26 05:53:53;;;;;;;24.23;21.63;;;18.70;99.90;;;;;;5092223;28;20103;-76
2021/06/26 05:56:18;;;;;;;27.80;21.85;;;18.70;99.90;;;;;;5091954;28;20476;-71
2021/06/26 05:58:44;;;;;;;24.38;21.77;;;18.70;99.90;;;;;;5092215;28;20016;-79
2021/06/26 06:01:11;;;;;;;24.95;22.33;;;18.70;99.90;;;;;;5092163;28;20024;-70
2021/06/26 06:03:38;;;;;;;23.65;21.15;;;18.80;99.90;;;;;;5091458;28;20013;-71
2021/06/26 06:06:05;;;;;;;26.55;22.73;;;18.80;99.90;;;;;;5072231;28;20034;-78
2021/06/26 06:08:30;;;;;;;25.73;22.95;;;18.80;99.90;;;;;;5084010;28;20107;-70
2021/06/26 06:10:56;;;;;;;24.98;22.27;;;18.80;99.90;;;;;;5090931;28;20537;-70
2021/06/26 06:13:22;;;;;;;26.00;21.95;;;18.90;99.90;;;;;;5092472;28;20065;-69
2021/06/26 06:15:49;;;;;;;24.80;21.83;;;18.90;99.90;;;;;;5091151;28;20051;-70
2021/06/26 06:18:17;;;;;;;27.63;24.73;;;19.00;99.90;;;;;;5074174;28;20567;-70
2021/06/26 06:20:43;;;;;;;27.55;24.55;;;19.00;99.90;;;;;;5089905;28;20388;-69
2021/06/26 06:23:09;;;;;;;25.73;22.88;;;19.00;99.90;;;;;;5071620;28;20559;-69
2021/06/26 06:25:35;;;;;;;25.77;23.02;;;19.00;99.90;;;;;;5072191;28;20071;-69
2021/06/26 06:28:04;;;;;;;25.85;23.15;;;19.00;99.90;;;;;;5071875;28;20025;-68
2021/06/26 06:30:31;;;;;;;23.83;21.38;;;19.00;99.90;;;;;;5071215;28;20024;-69
2021/06/26 06:32:58;;;;;;;26.80;23.95;;;19.00;99.90;;;;;;5071836;28;20036;-70
2021/06/26 06:35:24;;;;;;;26.83;23.90;;;19.00;99.90;;;;;;5085216;28;20112;-68
2021/06/26 06:37:50;;;;;;;26.23;23.13;;;18.90;99.90;;;;;;5090822;28;20104;-70
2021/06/26 06:40:16;;;;;;;24.80;22.20;;;18.90;99.90;;;;;;5082464;28;20027;-70
2021/06/26 06:42:42;;;;;;;25.35;22.65;;;18.90;99.90;;;;;;5066923;28;20028;-69
2021/06/26 06:45:09;;;;;;;23.15;20.75;;;18.80;99.90;;;;;;5091335;28;20046;-69
2021/06/26 06:47:34;;;;;;;24.98;21.95;;;18.80;99.90;;;;;;5089951;28;20114;-69
2021/06/26 06:50:00;;;;;;;26.00;23.02;;;18.80;99.90;;;;;;5091808;28;20449;-68
2021/06/26 06:52:25;;;;;;;24.90;22.30;;;18.80;99.90;;;;;;5064738;28;20385;-69
2021/06/26 06:54:51;;;;;;;26.48;23.45;;;18.80;99.90;;;;;;5089120;28;20032;-69
2021/06/26 06:57:23;;;;;;;22.80;20.48;;;18.80;99.90;;;;;;5089906;28;20047;-69
2021/06/26 06:59:49;;;;;;;22.85;20.40;;;18.80;99.90;;;;;;5090846;28;20023;-69
2021/06/26 07:02:14;;;;;;;23.73;19.88;;;18.80;99.90;;;;;;5091612;28;20113;-68
2021/06/26 07:04:40;;;;;;;22.15;19.83;;;18.80;99.90;;;;;;5091373;28;20043;-68
2021/06/26 07:07:06;;;;;;;26.50;20.52;;;18.70;99.90;;;;;;5091164;28;20055;-68
2021/06/26 07:09:31;;;;;;;22.30;19.90;;;18.80;99.90;;;;;;5091379;28;20102;-74
2021/06/26 07:11:58;;;;;;;22.27;19.88;;;18.80;99.90;;;;;;5071692;28;20468;-77
2021/06/26 07:14:23;;;;;;;21.58;19.27;;;18.90;99.90;;;;;;5075180;28;20020;-71
2021/06/26 07:16:49;;;;;;;21.58;19.38;;;19.00;99.90;;;;;;5092688;28;20212;-72
2021/06/26 07:19:14;;;;;;;19.17;17.17;;;19.00;99.90;;;;;;5068058;28;20027;-74
2021/06/26 07:21:40;;;;;;;19.83;17.55;;;19.10;99.90;;;;;;5095154;28;20027;-71
2021/06/26 07:24:06;;;;;;;20.98;18.55;;;19.10;99.90;;;;;;5077155;28;20020;-72
2021/06/26 07:26:31;;;;;;;18.88;16.95;;;19.20;99.90;;;;;;5074592;28;20024;-73
2021/06/26 07:28:57;;;;;;;19.08;17.08;;;19.30;99.90;;;;;;5086732;28;20112;-73
2021/06/26 07:31:23;;;;;;;17.70;15.98;;;19.40;99.90;;;;;;5075092;28;20373;-71
2021/06/26 07:33:48;;;;;;;17.60;15.80;;;19.50;99.90;;;;;;5079086;28;20024;-73
2021/06/26 07:36:14;;;;;;;18.48;16.10;;;19.60;99.90;;;;;;5077052;28;20078;-73
2021/06/26 07:38:39;;;;;;;18.25;16.35;;;19.60;99.90;;;;;;5076711;28;20126;-72
2021/06/26 07:41:05;;;;;;;17.38;15.68;;;19.60;99.90;;;;;;5091728;28;20062;-72
2021/06/26 07:43:31;;;;;;;16.05;14.45;;;19.70;99.90;;;;;;5074598;28;20099;-73
2021/06/26 07:45:56;;;;;;;15.90;14.30;;;19.80;99.90;;;;;;5075831;28;20028;-70
2021/06/26 07:48:22;;;;;;;14.88;13.40;;;19.80;99.90;;;;;;5073915;28;20036;-70
2021/06/26 07:50:50;;;;;;;16.25;14.50;;;19.90;99.90;;;;;;5057455;28;20500;-71
2021/06/26 07:53:17;;;;;;;16.45;14.73;;;20.00;99.90;;;;;;5074540;28;20021;-69
2021/06/26 07:55:43;;;;;;;15.32;13.77;;;20.00;99.90;;;;;;5073484;28;20039;-69
2021/06/26 07:58:09;;;;;;;17.80;15.98;;;20.00;99.90;;;;;;5074357;28;20025;-69
2021/06/26 08:00:34;;;;;;;17.83;16.00;;;20.10;99.90;;;;;;5074316;28;20108;-75
2021/06/26 08:03:00;;;;;;;15.48;14.00;;;20.20;99.90;;;;;;5056698;28;20491;-76
2021/06/26 08:05:25;;;;;;;15.93;14.40;;;20.20;99.90;;;;;;5083266;28;20028;-70
2021/06/26 08:07:52;;;;;;;17.40;15.55;;;20.30;99.90;;;;;;5076236;28;20024;-68
2021/06/26 08:10:17;;;;;;;16.55;14.98;;;20.30;99.90;;;;;;5093864;28;20028;-68
2021/06/26 08:12:43;;;;;;;17.20;15.50;;;20.40;99.90;;;;;;5071234;28;20024;-67
2021/06/26 08:15:09;;;;;;;23.65;16.55;;;20.40;99.90;;;;;;5074683;28;20036;-76
2021/06/26 08:17:34;;;;;;;16.40;14.73;;;20.50;99.90;;;;;;5092150;28;20064;-69
2021/06/26 08:20:00;;;;;;;19.08;15.55;;;20.50;99.90;;;;;;5094202;28;20102;-72
2021/06/26 08:22:25;;;;;;;18.15;16.25;;;20.60;99.90;;;;;;5092437;28;20097;-70
2021/06/26 08:24:51;;;;;;;18.45;16.38;;;20.70;99.90;;;;;;5093149;28;20559;-70
2021/06/26 08:27:17;;;;;;;18.25;16.42;;;20.70;99.90;;;;;;5074300;28;20024;-71
2021/06/26 08:29:42;;;;;;;20.20;18.10;;;20.80;99.90;;;;;;5087380;28;20039;-69
2021/06/26 08:32:08;;;;;;;18.67;16.27;;;20.80;99.90;;;;;;5079704;28;20024;-70
2021/06/26 08:34:33;;;;;;;18.23;15.90;;;20.90;99.90;;;;;;5073240;28;20025;-69
2021/06/26 08:36:59;;;;;;;16.45;14.82;;;20.90;99.90;;;;;;5073076;28;20523;-69
2021/06/26 08:39:24;;;;;;;15.85;14.13;;;21.00;99.90;;;;;;5085552;28;20024;-69
2021/06/26 08:41:51;;;;;;;17.25;15.30;;;21.00;99.90;;;;;;5086372;28;20032;-69
2021/06/26 08:44:17;;;;;;;17.92;16.08;;;21.10;99.90;;;;;;5056893;28;20024;-69
2021/06/26 08:46:51;;;;;;;15.32;13.75;;;21.20;99.90;;;;;;5086011;28;20021;-73
2021/06/26 08:49:17;;;;;;;18.05;14.48;;;21.20;99.90;;;;;;5093780;28;20133;-70
2021/06/26 08:51:43;;;;;;;16.17;14.63;;;21.30;99.90;;;;;;5074460;28;20099;-70
2021/06/26 08:54:17;;;;;;;17.25;14.75;;;21.30;99.90;;;;;;5093589;28;20020;-69
2021/06/26 08:56:44;;;;;;;15.18;13.55;;;21.30;99.90;;;;;;5075087;28;20032;-70
2021/06/26 08:59:10;;;;;;;16.30;14.60;;;21.30;99.90;;;;;;5092908;28;20091;-70
2021/06/26 09:01:37;;;;;;;15.48;13.77;;;21.40;99.90;;;;;;5073361;28;20020;-70
2021/06/26 09:04:08;;;;;;;17.23;14.55;;;21.40;99.90;;;;;;5072378;28;20046;-69
2021/06/26 09:06:49;;;;;;;15.60;14.00;;;21.50;99.90;;;;;;5082405;28;20027;-71
2021/06/26 09:09:15;;;;;;;15.65;14.10;;;21.50;99.90;;;;;;5088601;28;20066;-70
2021/06/26 09:11:41;;;;;;;14.88;13.15;;;21.50;99.90;;;;;;5075212;28;20025;-70
2021/06/26 09:14:20;;;;;;;15.13;13.60;;;21.60;99.90;;;;;;5067986;28;20028;-70
2021/06/26 09:16:52;;;;;;;14.43;12.88;;;21.70;99.90;;;;;;5076446;28;20139;-71
2021/06/26 09:19:18;;;;;;;17.35;14.65;;;21.60;99.90;;;;;;5060910;28;20427;-70
2021/06/26 09:21:59;;;;;;;29.40;15.70;;;21.70;99.90;;;;;;5073697;28;20016;-69
2021/06/26 09:24:34;;;;;;;18.70;15.43;;;21.70;99.90;;;;;;5073050;28;20028;-70
2021/06/26 09:27:00;;;;;;;17.15;13.57;;;21.70;99.90;;;;;;5065523;28;20035;-69
2021/06/26 09:29:26;;;;;;;15.98;12.55;;;21.80;99.90;;;;;;5060555;28;20384;-69
2021/06/26 09:32:00;;;;;;;14.25;12.90;;;21.80;99.90;;;;;;5092676;28;20024;-69
2021/06/26 09:34:42;;;;;;;14.43;12.90;;;22.00;99.90;;;;;;5070642;28;20036;-71
2021/06/26 09:37:10;;;;;;;14.70;13.30;;;22.10;99.90;;;;;;5062825;28;20038;-68
2021/06/26 09:39:43;;;;;;;17.92;12.30;;;22.20;99.90;;;;;;5072372;28;20025;-69
2021/06/26 09:42:21;;;;;;;16.02;11.10;;;22.40;99.90;;;;;;5054426;28;20025;-72
2021/06/26 09:44:52;;;;;;;13.73;12.07;;;22.50;99.90;;;;;;5078438;28;20032;-70
2021/06/26 09:47:43;;;;;;;23.25;13.35;;;22.70;99.90;;;;;;5089900;28;20030;-71
2021/06/26 09:50:14;;;;;;;15.40;12.40;;;22.90;99.90;;;;;;5087422;28;20479;-71
2021/06/26 09:52:42;;;;;;;17.00;11.80;;;22.90;99.90;;;;;;5062025;28;20024;-74
2021/06/26 09:55:46;;;;;;;17.58;13.90;;;23.10;99.90;;;;;;5073597;28;20112;-86
2021/06/26 09:58:17;;;;;;;13.25;11.88;;;23.20;99.90;;;;;;5043281;28;20139;-71
2021/06/26 10:00:43;;;;;;;13.82;12.18;;;23.30;99.90;;;;;;5083252;28;20031;-69
2021/06/26 10:03:09;;;;;;;14.20;12.68;;;23.50;99.90;;;;;;5072661;28;20020;-69
2021/06/26 10:05:35;;;;;;;14.05;12.55;;;23.70;99.60;;;;;;5071788;28;20025;-69
2021/06/26 10:08:04;;;;;;;13.77;12.07;;;23.70;99.20;;;;;;5071378;28;20020;-69
2021/06/26 10:10:29;;;;;;;14.15;11.75;;;23.50;99.90;;;;;;5088146;28;20016;-75
2021/06/26 10:12:55;;;;;;;14.30;11.50;;;23.30;99.90;;;;;;5066835;28;20531;-75
2021/06/26 10:15:27;;;;;;;16.08;13.63;;;23.20;99.90;;;;;;5087788;28;20134;-76
2021/06/26 10:17:53;;;;;;;14.60;13.18;;;23.20;99.90;;;;;;5076964;28;20040;-73
2021/06/26 10:20:21;;;;;;;13.50;12.00;;;23.30;99.90;;;;;;5073253;28;20063;-73
2021/06/26 10:22:52;;;;;;;13.68;11.75;;;23.50;99.80;;;;;;5071969;28;20025;-71
2021/06/26 10:25:18;;;;;;;14.18;10.95;;;23.70;99.50;;;;;;5086298;28;20036;-71
2021/06/26 10:27:45;;;;;;;13.27;11.90;;;23.80;99.80;;;;;;5073765;28;20024;-79
2021/06/26 10:30:15;;;;;;;12.43;11.32;;;23.70;99.50;;;;;;5072578;28;20020;-81
2021/06/26 10:32:54;;;;;;;14.68;13.05;;;23.70;99.30;;;;;;5066633;28;20381;-80
2021/06/26 10:35:21;;;;;;;13.60;12.30;;;24.00;98.50;;;;;;5074037;28;20066;-80
2021/06/26 10:37:57;;;;;;;12.30;11.07;;;24.10;98.10;;;;;;5072839;28;20521;-81
2021/06/26 10:40:41;;;;;;;11.27;10.10;;;24.20;98.00;;;;;;5072019;28;20031;-80
2021/06/26 10:43:22;;;;;;;11.93;9.18;;;24.30;98.60;;;;;;5068134;28;20047;-79
2021/06/26 10:45:49;;;;;;;12.18;10.85;;;24.50;98.50;;;;;;5071344;28;20024;-79
2021/06/26 10:48:26;;;;;;;14.85;12.65;;;24.70;96.50;;;;;;5056558;28;20469;-79
2021/06/26 10:50:54;;;;;;;13.38;11.15;;;24.70;95.80;;;;;;5057328;28;20107;-79
2021/06/26 10:53:32;;;;;;;10.52;9.45;;;24.60;96.50;;;;;;5075745;28;20028;-79
2021/06/26 10:56:13;;;;;;;11.23;10.13;;;24.50;97.30;;;;;;5057433;28;20102;-80
2021/06/26 10:58:43;;;;;;;14.55;13.18;;;24.50;97.70;;;;;;5057833;28;20089;-76
2021/06/26 11:01:13;;;;;;;15.60;13.90;;;24.40;96.30;;;;;;5064782;28;20350;-79
2021/06/26 11:03:39;;;;;;;15.82;12.65;;;24.30;96.40;;;;;;5070140;28;20368;-77
2021/06/26 11:06:22;;;;;;;12.70;11.40;;;24.40;95.70;;;;;;5062595;28;20028;-74
2021/06/26 11:08:58;;;;;;;12.20;11.00;;;24.60;95.90;;;;;;5095610;28;20035;-72
2021/06/26 11:11:44;;;;;;;14.00;12.50;;;25.00;96.40;;;;;;5094241;28;20024;-83
2021/06/26 11:14:24;;;;;;;12.50;11.20;;;25.50;95.10;;;;;;5077003;28;20040;-73
2021/06/26 11:16:50;;;;;;;11.77;10.68;;;25.70;94.70;;;;;;5055938;28;20049;-74
2021/06/26 11:19:17;;;;;;;12.00;10.65;;;26.10;94.70;;;;;;5061325;28;20025;-73
2021/06/26 11:21:48;;;;;;;14.20;12.70;;;26.50;93.90;;;;;;5063539;28;20486;-73
2021/06/26 11:24:15;;;;;;;19.35;16.48;;;26.80;92.70;;;;;;5074272;28;20480;-78
2021/06/26 11:26:51;;;;;;;15.63;13.70;;;26.90;92.90;;;;;;5067825;28;20480;-75
2021/06/26 11:29:25;;;;;;;13.23;11.82;;;26.90;93.20;;;;;;5062238;28;20021;-75
2021/06/26 11:31:50;;;;;;;13.25;11.85;;;26.70;93.10;;;;;;5063869;28;20021;-75
2021/06/26 11:34:16;;;;;;;13.55;12.15;;;26.60;93.10;;;;;;5072912;28;20471;-73
2021/06/26 11:36:42;;;;;;;13.45;11.75;;;26.30;93.30;;;;;;5074935;28;20094;-73
2021/06/26 11:39:08;;;;;;;13.18;11.88;;;26.40;93.40;;;;;;5058778;28;20048;-73
2021/06/26 11:41:33;;;;;;;13.88;12.48;;;26.50;92.80;;;;;;5072297;28;20098;-75
2021/06/26 11:44:00;;;;;;;15.60;14.20;;;26.50;92.40;;;;;;5067710;28;20039;-76
2021/06/26 11:46:26;;;;;;;13.07;11.75;;;26.50;90.90;;;;;;5071172;28;20056;-73
2021/06/26 11:48:52;;;;;;;12.35;11.25;;;26.50;91.40;;;;;;5067319;28;20458;-74
2021/06/26 11:51:18;;;;;;;12.02;10.82;;;26.60;92.00;;;;;;5058626;28;20024;-74
2021/06/26 11:53:44;;;;;;;12.13;10.93;;;26.70;92.40;;;;;;5068455;28;20515;-73
2021/06/26 11:56:14;;;;;;;11.75;10.65;;;26.80;92.40;;;;;;5054451;28;20041;-77
2021/06/26 11:58:50;;;;;;;12.85;11.05;;;26.70;92.60;;;;;;5061967;28;20107;-76
2021/06/26 12:01:28;;;;;;;12.57;11.38;;;26.70;92.80;;;;;;5066451;28;20049;-72
2021/06/26 12:03:55;;;;;;;12.68;11.40;;;26.60;92.50;;;;;;5054064;28;20067;-72
2021/06/26 12:06:21;;;;;;;13.90;11.95;;;26.60;92.50;;;;;;5054449;28;20435;-73
2021/06/26 12:08:53;;;;;;;12.45;11.18;;;26.70;91.70;;;;;;5054400;28;20032;-73
2021/06/26 12:11:24;;;;;;;13.45;12.05;;;26.80;91.60;;;;;;5054299;28;20029;-72
2021/06/26 12:13:54;;;;;;;15.10;12.27;;;27.00;90.70;;;;;;5053785;28;20025;-74
2021/06/26 12:16:21;;;;;;;11.63;10.53;;;27.10;90.50;;;;;;5060623;28;20097;-77
2021/06/26 12:18:55;;;;;;;13.18;12.00;;;27.20;90.50;;;;;;5070785;28;20032;-71
2021/06/26 12:21:25;;;;;;;12.60;10.88;;;27.30;90.20;;;;;;5072377;28;20107;-71
2021/06/26 12:23:52;;;;;;;18.45;12.25;;;27.30;91.00;;;;;;5072055;28;20043;-71
2021/06/26 12:26:23;;;;;;;12.95;11.70;;;27.30;90.60;;;;;;5068678;28;20032;-71
2021/06/26 12:28:50;;;;;;;13.48;12.23;;;27.40;90.70;;;;;;5054530;28;20763;-70